sensor_id;sensor_type;location;lat;lon;timestamp;pressure;altitude;pressure_sealevel;temperature;humidity
69460;BME280;57182;55.712;37.612;2022-07-06T00:00:07;99865.88;;;20.01;81.06
69460;BME280;57182;55.712;37.612;2022-07-06T00:02:36;99870.38;;;20.01;81.23
69460;BME280;57182;55.712;37.612;2022-07-06T00:05:04;99855.66;;;19.79;81.46
69460;BME280;57182;55.712;37.612;2022-07-06T00:07:37;99869.00;;;19.97;82.03
69460;BME280;57182;55.712;37.612;2022-07-06T00:10:06;99844.34;;;19.95;81.30
69460;BME280;57182;55.712;37.612;2022-07-06T00:12:33;99862.75;;;19.88;81.63
69460;BME280;57182;55.712;37.612;2022-07-06T00:15:01;99843.88;;;19.82;81.63
69460;BME280;57182;55.712;37.612;2022-07-06T00:17:32;99837.69;;;19.64;81.85
69460;BME280;57182;55.712;37.612;2022-07-06T00:20:00;99847.28;;;19.74;81.78
69460;BME280;57182;55.712;37.612;2022-07-06T00:22:28;99866.31;;;19.79;81.99
69460;BME280;57182;55.712;37.612;2022-07-06T00:24:56;99840.94;;;19.75;81.90
69460;BME280;57182;55.712;37.612;2022-07-06T00:27:30;99819.72;;;19.66;82.12
69460;BME280;57182;55.712;37.612;2022-07-06T00:29:58;99860.75;;;19.73;82.08
69460;BME280;57182;55.712;37.612;2022-07-06T00:32:25;99823.53;;;19.63;82.43
69460;BME280;57182;55.712;37.612;2022-07-06T00:34:56;99839.50;;;19.63;82.58
69460;BME280;57182;55.712;37.612;2022-07-06T00:37:26;99816.06;;;19.49;82.95
69460;BME280;57182;55.712;37.612;2022-07-06T00:39:53;99811.25;;;19.53;82.69
69460;BME280;57182;55.712;37.612;2022-07-06T00:42:23;99809.72;;;19.50;82.53
69460;BME280;57182;55.712;37.612;2022-07-06T00:44:51;99836.06;;;19.53;82.68
69460;BME280;57182;55.712;37.612;2022-07-06T00:47:49;99861.66;;;19.64;84.18
69460;BME280;57182;55.712;37.612;2022-07-06T00:50:20;99837.25;;;19.41;83.33
69460;BME280;57182;55.712;37.612;2022-07-06T00:53:03;99847.38;;;19.55;83.43
69460;BME280;57182;55.712;37.612;2022-07-06T00:55:37;99837.28;;;19.59;83.16
69460;BME280;57182;55.712;37.612;2022-07-06T00:58:12;99854.50;;;19.64;83.15
69460;BME280;57182;55.712;37.612;2022-07-06T01:00:39;99870.81;;;19.79;82.83
69460;BME280;57182;55.712;37.612;2022-07-06T01:03:12;99829.53;;;19.65;82.74
69460;BME280;57182;55.712;37.612;2022-07-06T01:05:44;99862.91;;;19.87;82.65
69460;BME280;57182;55.712;37.612;2022-07-06T01:08:12;99852.53;;;19.84;82.74
69460;BME280;57182;55.712;37.612;2022-07-06T01:10:41;99816.00;;;19.59;82.58
69460;BME280;57182;55.712;37.612;2022-07-06T01:13:09;99831.41;;;19.55;83.16
69460;BME280;57182;55.712;37.612;2022-07-06T01:15:40;99864.13;;;19.75;83.52
69460;BME280;57182;55.712;37.612;2022-07-06T01:18:10;99834.56;;;19.68;82.72
69460;BME280;57182;55.712;37.612;2022-07-06T01:20:40;99861.28;;;19.76;83.65
69460;BME280;57182;55.712;37.612;2022-07-06T01:23:07;99840.53;;;19.53;83.23
69460;BME280;57182;55.712;37.612;2022-07-06T01:25:44;99831.88;;;19.51;83.39
69460;BME280;57182;55.712;37.612;2022-07-06T01:28:14;99840.50;;;19.62;83.10
69460;BME280;57182;55.712;37.612;2022-07-06T01:30:42;99866.22;;;19.71;83.12
69460;BME280;57182;55.712;37.612;2022-07-06T01:33:09;99849.28;;;19.72;82.61
69460;BME280;57182;55.712;37.612;2022-07-06T01:35:41;99855.59;;;19.89;82.82
69460;BME280;57182;55.712;37.612;2022-07-06T01:38:16;99838.06;;;19.69;82.91
69460;BME280;57182;55.712;37.612;2022-07-06T01:40:43;99856.81;;;19.77;82.74
69460;BME280;57182;55.712;37.612;2022-07-06T01:43:13;99856.72;;;19.69;83.06
69460;BME280;57182;55.712;37.612;2022-07-06T01:45:41;99884.13;;;19.79;83.36
69460;BME280;57182;55.712;37.612;2022-07-06T01:48:08;99855.34;;;19.65;83.39
69460;BME280;57182;55.712;37.612;2022-07-06T01:50:36;99863.50;;;19.81;83.19
69460;BME280;57182;55.712;37.612;2022-07-06T01:53:04;99886.19;;;19.85;83.00
69460;BME280;57182;55.712;37.612;2022-07-06T01:55:33;99841.03;;;19.66;83.04
69460;BME280;57182;55.712;37.612;2022-07-06T01:58:02;99846.75;;;19.71;82.86
69460;BME280;57182;55.712;37.612;2022-07-06T02:00:33;99857.03;;;19.83;82.63
69460;BME280;57182;55.712;37.612;2022-07-06T02:03:02;99847.22;;;19.84;82.76
69460;BME280;57182;55.712;37.612;2022-07-06T02:05:33;99859.19;;;19.97;82.83
69460;BME280;57182;55.712;37.612;2022-07-06T02:08:00;99836.25;;;19.87;82.66
69460;BME280;57182;55.712;37.612;2022-07-06T02:10:28;99846.75;;;19.88;82.72
69460;BME280;57182;55.712;37.612;2022-07-06T02:12:55;99865.03;;;20.01;82.59
69460;BME280;57182;55.712;37.612;2022-07-06T02:15:23;99851.69;;;19.83;82.93
69460;BME280;57182;55.712;37.612;2022-07-06T02:17:54;99853.53;;;19.83;82.93
69460;BME280;57182;55.712;37.612;2022-07-06T02:20:26;99855.38;;;19.82;82.89
69460;BME280;57182;55.712;37.612;2022-07-06T02:22:53;99858.94;;;19.91;82.97
69460;BME280;57182;55.712;37.612;2022-07-06T02:25:27;99857.59;;;19.87;82.93
69460;BME280;57182;55.712;37.612;2022-07-06T02:28:02;99867.50;;;20.12;82.44
69460;BME280;57182;55.712;37.612;2022-07-06T02:31:01;99866.91;;;20.18;82.22
69460;BME280;57182;55.712;37.612;2022-07-06T02:33:31;99881.31;;;20.25;82.00
69460;BME280;57182;55.712;37.612;2022-07-06T02:36:36;99867.22;;;20.33;80.84
69460;BME280;57182;55.712;37.612;2022-07-06T02:40:27;99886.09;;;20.39;80.06
69460;BME280;57182;55.712;37.612;2022-07-06T02:43:54;99858.81;;;20.45;79.56
69460;BME280;57182;55.712;37.612;2022-07-06T02:47:21;99888.56;;;20.76;79.15
69460;BME280;57182;55.712;37.612;2022-07-06T02:50:50;99884.94;;;20.59;79.10
69460;BME280;57182;55.712;37.612;2022-07-06T03:02:08;99870.25;;;20.55;79.09
69460;BME280;57182;55.712;37.612;2022-07-06T03:05:20;99889.41;;;20.77;77.99
69460;BME280;57182;55.712;37.612;2022-07-06T03:07:50;99857.50;;;20.67;77.39
69460;BME280;57182;55.712;37.612;2022-07-06T03:10:25;99894.19;;;20.91;77.16
69460;BME280;57182;55.712;37.612;2022-07-06T03:12:56;99878.84;;;20.93;76.45
69460;BME280;57182;55.712;37.612;2022-07-06T03:15:46;99866.13;;;20.87;76.01
69460;BME280;57182;55.712;37.612;2022-07-06T03:18:58;99852.63;;;20.88;76.29
69460;BME280;57182;55.712;37.612;2022-07-06T03:21:29;99875.63;;;21.07;75.72
69460;BME280;57182;55.712;37.612;2022-07-06T03:23:57;99851.69;;;20.97;76.16
69460;BME280;57182;55.712;37.612;2022-07-06T03:26:24;99833.47;;;20.93;75.78
69460;BME280;57182;55.712;37.612;2022-07-06T03:28:54;99851.84;;;20.96;76.07
69460;BME280;57182;55.712;37.612;2022-07-06T03:31:24;99841.59;;;21.09;75.81
69460;BME280;57182;55.712;37.612;2022-07-06T03:34:12;99847.97;;;21.08;74.16
69460;BME280;57182;55.712;37.612;2022-07-06T03:37:38;99864.34;;;21.21;74.65
69460;BME280;57182;55.712;37.612;2022-07-06T03:40:13;99846.69;;;21.20;74.10
69460;BME280;57182;55.712;37.612;2022-07-06T03:43:13;99865.47;;;21.44;74.08
69460;BME280;57182;55.712;37.612;2022-07-06T03:45:46;99872.22;;;21.56;73.21
69460;BME280;57182;55.712;37.612;2022-07-06T03:48:25;99845.66;;;21.55;73.18
69460;BME280;57182;55.712;37.612;2022-07-06T03:55:19;99869.50;;;21.90;71.43
69460;BME280;57182;55.712;37.612;2022-07-06T03:58:12;99838.78;;;21.94;71.90
69460;BME280;57182;55.712;37.612;2022-07-06T04:00:55;99842.81;;;22.06;71.37
69460;BME280;57182;55.712;37.612;2022-07-06T04:04:30;99847.84;;;22.25;71.04
69460;BME280;57182;55.712;37.612;2022-07-06T04:07:54;99853.53;;;22.22;69.61
69460;BME280;57182;55.712;37.612;2022-07-06T04:24:50;99868.41;;;22.57;69.02
69460;BME280;57182;55.712;37.612;2022-07-06T04:32:15;99847.88;;;22.66;68.32
69460;BME280;57182;55.712;37.612;2022-07-06T04:34:54;99871.75;;;22.91;68.33
69460;BME280;57182;55.712;37.612;2022-07-06T04:37:24;99860.53;;;22.88;68.18
69460;BME280;57182;55.712;37.612;2022-07-06T04:39:51;99860.34;;;22.97;67.78
69460;BME280;57182;55.712;37.612;2022-07-06T04:42:23;99860.31;;;23.13;67.59
69460;BME280;57182;55.712;37.612;2022-07-06T04:44:54;99846.59;;;23.16;67.36
69460;BME280;57182;55.712;37.612;2022-07-06T04:47:22;99846.91;;;23.22;66.70
69460;BME280;57182;55.712;37.612;2022-07-06T04:49:55;99858.75;;;23.35;66.63
69460;BME280;57182;55.712;37.612;2022-07-06T04:52:23;99874.59;;;23.61;66.16
69460;BME280;57182;55.712;37.612;2022-07-06T04:55:05;99837.25;;;23.51;66.19
69460;BME280;57182;55.712;37.612;2022-07-06T04:58:02;99870.25;;;23.91;65.40
69460;BME280;57182;55.712;37.612;2022-07-06T05:00:33;99842.09;;;23.87;65.41
69460;BME280;57182;55.712;37.612;2022-07-06T05:03:55;99842.06;;;23.95;65.02
69460;BME280;57182;55.712;37.612;2022-07-06T05:06:32;99840.69;;;23.99;64.02
69460;BME280;57182;55.712;37.612;2022-07-06T05:09:18;99830.06;;;24.13;63.56
69460;BME280;57182;55.712;37.612;2022-07-06T05:11:48;99826.69;;;24.19;63.28
69460;BME280;57182;55.712;37.612;2022-07-06T05:14:15;99821.06;;;24.29;62.56
69460;BME280;57182;55.712;37.612;2022-07-06T05:20:06;99844.25;;;24.82;61.35
69460;BME280;57182;55.712;37.612;2022-07-06T05:22:37;99845.75;;;24.99;61.21
69460;BME280;57182;55.712;37.612;2022-07-06T05:25:14;99822.50;;;24.91;60.83
69460;BME280;57182;55.712;37.612;2022-07-06T05:27:44;99848.19;;;25.23;59.20
69460;BME280;57182;55.712;37.612;2022-07-06T05:30:12;99839.09;;;25.39;59.25
69460;BME280;57182;55.712;37.612;2022-07-06T05:32:44;99824.28;;;25.57;58.17
69460;BME280;57182;55.712;37.612;2022-07-06T05:35:12;99829.03;;;25.77;57.52
69460;BME280;57182;55.712;37.612;2022-07-06T05:38:03;99817.91;;;25.80;56.68
69460;BME280;57182;55.712;37.612;2022-07-06T05:40:38;99816.13;;;26.08;56.25
69460;BME280;57182;55.712;37.612;2022-07-06T05:43:05;99842.03;;;26.51;55.96
69460;BME280;57182;55.712;37.612;2022-07-06T05:45:33;99825.44;;;26.75;55.23
69460;BME280;57182;55.712;37.612;2022-07-06T05:48:04;99828.44;;;27.15;53.75
69460;BME280;57182;55.712;37.612;2022-07-06T05:50:51;99830.63;;;27.86;53.03
69460;BME280;57182;55.712;37.612;2022-07-06T05:53:19;99829.97;;;28.71;50.98
69460;BME280;57182;55.712;37.612;2022-07-06T05:55:55;99827.91;;;29.57;46.87
69460;BME280;57182;55.712;37.612;2022-07-06T05:58:29;99842.31;;;30.26;45.10
69460;BME280;57182;55.712;37.612;2022-07-06T06:00:58;99815.84;;;30.60;47.06
69460;BME280;57182;55.712;37.612;2022-07-06T06:03:28;99818.25;;;31.17;45.75
69460;BME280;57182;55.712;37.612;2022-07-06T06:05:58;99820.44;;;31.63;43.71
69460;BME280;57182;55.712;37.612;2022-07-06T06:08:27;99827.13;;;32.08;42.38
69460;BME280;57182;55.712;37.612;2022-07-06T06:10:55;99830.94;;;32.60;41.57
69460;BME280;57182;55.712;37.612;2022-07-06T06:13:28;99845.84;;;32.69;39.68
69460;BME280;57182;55.712;37.612;2022-07-06T06:15:56;99839.25;;;32.35;38.81
69460;BME280;57182;55.712;37.612;2022-07-06T06:18:26;99819.94;;;32.78;39.81
69460;BME280;57182;55.712;37.612;2022-07-06T06:20:56;99814.13;;;32.86;39.60
69460;BME280;57182;55.712;37.612;2022-07-06T06:23:24;99814.63;;;32.95;39.61
69460;BME280;57182;55.712;37.612;2022-07-06T06:25:53;99818.69;;;33.55;37.19
69460;BME280;57182;55.712;37.612;2022-07-06T06:28:20;99826.69;;;33.74;37.26
69460;BME280;57182;55.712;37.612;2022-07-06T06:30:51;99842.66;;;33.82;37.03
69460;BME280;57182;55.712;37.612;2022-07-06T06:33:19;99831.13;;;33.40;36.88
69460;BME280;57182;55.712;37.612;2022-07-06T06:35:52;99810.72;;;32.91;37.40
69460;BME280;57182;55.712;37.612;2022-07-06T06:38:23;99834.31;;;33.48;37.39
69460;BME280;57182;55.712;37.612;2022-07-06T06:41:21;99829.97;;;33.36;35.69
69460;BME280;57182;55.712;37.612;2022-07-06T06:44:15;99838.16;;;33.76;35.89
69460;BME280;57182;55.712;37.612;2022-07-06T06:46:43;99820.06;;;34.09;35.60
69460;BME280;57182;55.712;37.612;2022-07-06T06:49:11;99809.50;;;34.30;35.88
69460;BME280;57182;55.712;37.612;2022-07-06T06:51:40;99810.19;;;34.37;34.97
69460;BME280;57182;55.712;37.612;2022-07-06T06:54:09;99818.28;;;34.03;36.16
69460;BME280;57182;55.712;37.612;2022-07-06T06:56:41;99813.44;;;34.05;35.37
69460;BME280;57182;55.712;37.612;2022-07-06T06:59:11;99809.72;;;34.56;35.12
69460;BME280;57182;55.712;37.612;2022-07-06T07:01:46;99807.84;;;34.95;35.47
69460;BME280;57182;55.712;37.612;2022-07-06T07:04:22;99821.88;;;35.20;35.12
69460;BME280;57182;55.712;37.612;2022-07-06T07:06:54;99825.75;;;35.24;34.40
69460;BME280;57182;55.712;37.612;2022-07-06T07:09:23;99814.72;;;35.36;34.46
69460;BME280;57182;55.712;37.612;2022-07-06T07:11:53;99832.44;;;35.33;34.81
69460;BME280;57182;55.712;37.612;2022-07-06T07:14:22;99801.47;;;35.06;34.80
69460;BME280;57182;55.712;37.612;2022-07-06T07:16:52;99827.72;;;35.29;34.23
69460;BME280;57182;55.712;37.612;2022-07-06T07:19:22;99796.44;;;35.58;33.60
69460;BME280;57182;55.712;37.612;2022-07-06T07:21:55;99798.66;;;35.88;32.62
69460;BME280;57182;55.712;37.612;2022-07-06T07:24:24;99801.19;;;35.24;33.24
69460;BME280;57182;55.712;37.612;2022-07-06T07:26:58;99799.28;;;34.53;33.66
69460;BME280;57182;55.712;37.612;2022-07-06T07:29:28;99802.75;;;34.82;34.32
69460;BME280;57182;55.712;37.612;2022-07-06T07:31:56;99812.25;;;34.80;33.79
69460;BME280;57182;55.712;37.612;2022-07-06T07:34:24;99816.56;;;34.59;33.82
69460;BME280;57182;55.712;37.612;2022-07-06T07:36:51;99813.31;;;34.29;34.98
69460;BME280;57182;55.712;37.612;2022-07-06T07:39:19;99805.84;;;34.24;34.99
69460;BME280;57182;55.712;37.612;2022-07-06T07:41:51;99823.91;;;34.42;34.99
69460;BME280;57182;55.712;37.612;2022-07-06T07:44:19;99807.59;;;33.57;36.03
69460;BME280;57182;55.712;37.612;2022-07-06T07:46:47;99807.53;;;33.17;36.58
69460;BME280;57182;55.712;37.612;2022-07-06T07:49:14;99804.94;;;32.64;37.28
69460;BME280;57182;55.712;37.612;2022-07-06T07:51:48;99806.19;;;32.50;37.74
69460;BME280;57182;55.712;37.612;2022-07-06T07:54:18;99805.97;;;31.81;38.13
69460;BME280;57182;55.712;37.612;2022-07-06T07:56:48;99815.53;;;31.35;39.70
69460;BME280;57182;55.712;37.612;2022-07-06T07:59:16;99822.66;;;30.93;40.13
69460;BME280;57182;55.712;37.612;2022-07-06T08:01:47;99807.09;;;30.58;40.44
69460;BME280;57182;55.712;37.612;2022-07-06T08:04:17;99817.19;;;30.19;41.55
69460;BME280;57182;55.712;37.612;2022-07-06T08:06:47;99819.63;;;30.77;40.32
69460;BME280;57182;55.712;37.612;2022-07-06T08:09:14;99809.06;;;32.14;38.21
69460;BME280;57182;55.712;37.612;2022-07-06T08:11:45;99802.59;;;33.42;35.95
69460;BME280;57182;55.712;37.612;2022-07-06T08:14:17;99828.09;;;34.33;34.22
69460;BME280;57182;55.712;37.612;2022-07-06T08:16:58;99801.66;;;34.83;33.20
69460;BME280;57182;55.712;37.612;2022-07-06T08:19:28;99791.47;;;34.57;33.33
69460;BME280;57182;55.712;37.612;2022-07-06T08:22:00;99798.69;;;33.50;34.42
69460;BME280;57182;55.712;37.612;2022-07-06T08:24:31;99803.72;;;33.30;35.69
69460;BME280;57182;55.712;37.612;2022-07-06T08:27:03;99801.50;;;32.92;35.67
69460;BME280;57182;55.712;37.612;2022-07-06T08:29:32;99809.25;;;32.42;36.93
69460;BME280;57182;55.712;37.612;2022-07-06T08:32:00;99811.66;;;31.61;38.28
69460;BME280;57182;55.712;37.612;2022-07-06T08:34:40;99827.41;;;31.16;39.74
69460;BME280;57182;55.712;37.612;2022-07-06T08:37:13;99820.41;;;32.22;38.21
69460;BME280;57182;55.712;37.612;2022-07-06T08:39:40;99799.88;;;33.54;36.77
69460;BME280;57182;55.712;37.612;2022-07-06T08:42:11;99813.50;;;34.72;34.07
69460;BME280;57182;55.712;37.612;2022-07-06T08:44:53;99802.06;;;35.30;33.55
69460;BME280;57182;55.712;37.612;2022-07-06T08:47:27;99783.41;;;35.44;32.09
69460;BME280;57182;55.712;37.612;2022-07-06T08:50:13;99817.75;;;35.83;32.37
69460;BME280;57182;55.712;37.612;2022-07-06T08:52:48;99773.66;;;34.88;32.97
69460;BME280;57182;55.712;37.612;2022-07-06T08:55:17;99797.41;;;33.81;35.26
69460;BME280;57182;55.712;37.612;2022-07-06T08:57:46;99800.56;;;32.75;36.93
69460;BME280;57182;55.712;37.612;2022-07-06T09:00:15;99792.97;;;32.01;38.20
69460;BME280;57182;55.712;37.612;2022-07-06T09:02:43;99804.19;;;31.38;38.89
69460;BME280;57182;55.712;37.612;2022-07-06T09:05:14;99785.31;;;31.50;37.68
69460;BME280;57182;55.712;37.612;2022-07-06T09:07:52;99785.06;;;32.75;35.48
69460;BME280;57182;55.712;37.612;2022-07-06T09:10:26;99803.31;;;33.89;33.83
69460;BME280;57182;55.712;37.612;2022-07-06T09:13:05;99772.16;;;34.80;32.60
69460;BME280;57182;55.712;37.612;2022-07-06T09:15:37;99779.44;;;35.78;32.39
69460;BME280;57182;55.712;37.612;2022-07-06T09:18:10;99785.06;;;35.93;31.32
69460;BME280;57182;55.712;37.612;2022-07-06T09:20:40;99776.75;;;35.13;31.96
69460;BME280;57182;55.712;37.612;2022-07-06T09:23:15;99779.31;;;34.64;32.73
69460;BME280;57182;55.712;37.612;2022-07-06T09:28:55;99767.88;;;33.89;34.36
69460;BME280;57182;55.712;37.612;2022-07-06T09:31:25;99765.31;;;33.43;35.08
69460;BME280;57182;55.712;37.612;2022-07-06T09:34:02;99766.03;;;33.78;34.37
69460;BME280;57182;55.712;37.612;2022-07-06T09:39:27;99762.19;;;34.69;33.00
69460;BME280;57182;55.712;37.612;2022-07-06T09:42:04;99759.19;;;35.52;31.72
69460;BME280;57182;55.712;37.612;2022-07-06T09:44:36;99764.00;;;36.15;31.52
69460;BME280;57182;55.712;37.612;2022-07-06T09:47:05;99784.91;;;35.78;31.52
69460;BME280;57182;55.712;37.612;2022-07-06T09:49:33;99767.28;;;35.04;33.04
69460;BME280;57182;55.712;37.612;2022-07-06T09:52:03;99769.28;;;34.20;33.35
69460;BME280;57182;55.712;37.612;2022-07-06T09:54:33;99765.59;;;33.30;35.14
69460;BME280;57182;55.712;37.612;2022-07-06T10:00:05;99761.22;;;33.97;34.31
69460;BME280;57182;55.712;37.612;2022-07-06T10:02:38;99756.94;;;34.01;34.37
69460;BME280;57182;55.712;37.612;2022-07-06T10:05:06;99750.28;;;34.25;34.34
69460;BME280;57182;55.712;37.612;2022-07-06T10:07:34;99755.19;;;34.78;32.07
69460;BME280;57182;55.712;37.612;2022-07-06T10:10:01;99757.63;;;35.34;31.56
69460;BME280;57182;55.712;37.612;2022-07-06T10:12:30;99746.63;;;35.51;31.93
69460;BME280;57182;55.712;37.612;2022-07-06T10:14:57;99750.81;;;35.37;32.32
69460;BME280;57182;55.712;37.612;2022-07-06T10:17:28;99733.63;;;35.15;32.21
69460;BME280;57182;55.712;37.612;2022-07-06T10:20:14;99725.78;;;34.80;32.58
69460;BME280;57182;55.712;37.612;2022-07-06T10:22:50;99735.56;;;34.98;32.43
69460;BME280;57182;55.712;37.612;2022-07-06T10:25:19;99736.03;;;34.73;32.25
69460;BME280;57182;55.712;37.612;2022-07-06T10:27:55;99745.75;;;34.86;31.72
69460;BME280;57182;55.712;37.612;2022-07-06T10:30:27;99719.38;;;34.91;31.60
69460;BME280;57182;55.712;37.612;2022-07-06T10:33:18;99724.75;;;34.64;32.02
69460;BME280;57182;55.712;37.612;2022-07-06T10:35:55;99738.66;;;34.01;33.13
69460;BME280;57182;55.712;37.612;2022-07-06T10:38:31;99716.78;;;33.80;33.72
69460;BME280;57182;55.712;37.612;2022-07-06T10:41:07;99714.88;;;34.08;34.07
69460;BME280;57182;55.712;37.612;2022-07-06T10:43:44;99730.47;;;34.13;33.26
69460;BME280;57182;55.712;37.612;2022-07-06T10:46:17;99728.31;;;33.70;34.39
69460;BME280;57182;55.712;37.612;2022-07-06T10:48:48;99731.34;;;33.45;34.30
69460;BME280;57182;55.712;37.612;2022-07-06T10:51:28;99740.59;;;33.44;34.87
69460;BME280;57182;55.712;37.612;2022-07-06T10:54:01;99726.38;;;33.42;34.66
69460;BME280;57182;55.712;37.612;2022-07-06T10:59:28;99712.31;;;33.74;34.82
69460;BME280;57182;55.712;37.612;2022-07-06T11:04:44;99707.63;;;34.69;32.93
69460;BME280;57182;55.712;37.612;2022-07-06T11:07:16;99720.03;;;34.60;32.66
69460;BME280;57182;55.712;37.612;2022-07-06T11:09:56;99712.31;;;34.73;32.53
69460;BME280;57182;55.712;37.612;2022-07-06T11:12:24;99708.63;;;34.30;33.29
69460;BME280;57182;55.712;37.612;2022-07-06T11:14:53;99724.72;;;34.48;32.77
69460;BME280;57182;55.712;37.612;2022-07-06T11:17:27;99692.22;;;34.25;32.77
69460;BME280;57182;55.712;37.612;2022-07-06T11:19:58;99701.13;;;34.03;32.80
69460;BME280;57182;55.712;37.612;2022-07-06T11:22:27;99721.03;;;33.76;31.88
69460;BME280;57182;55.712;37.612;2022-07-06T11:24:59;99708.88;;;33.95;31.64
69460;BME280;57182;55.712;37.612;2022-07-06T11:27:35;99710.19;;;33.92;32.11
69460;BME280;57182;55.712;37.612;2022-07-06T11:30:24;99707.03;;;33.84;31.62
69460;BME280;57182;55.712;37.612;2022-07-06T11:33:01;99691.09;;;33.76;31.89
69460;BME280;57182;55.712;37.612;2022-07-06T11:35:28;99684.09;;;33.51;31.94
69460;BME280;57182;55.712;37.612;2022-07-06T11:37:59;99689.47;;;33.75;32.43
69460;BME280;57182;55.712;37.612;2022-07-06T11:40:27;99667.94;;;34.23;32.02
69460;BME280;57182;55.712;37.612;2022-07-06T11:42:58;99691.72;;;34.28;31.80
69460;BME280;57182;55.712;37.612;2022-07-06T11:45:26;99680.66;;;34.01;31.67
69460;BME280;57182;55.712;37.612;2022-07-06T11:48:10;99675.50;;;34.04;32.40
69460;BME280;57182;55.712;37.612;2022-07-06T11:50:42;99666.00;;;34.78;30.94
69460;BME280;57182;55.712;37.612;2022-07-06T11:53:09;99678.66;;;35.06;31.09
69460;BME280;57182;55.712;37.612;2022-07-06T11:55:40;99672.72;;;34.71;31.85
69460;BME280;57182;55.712;37.612;2022-07-06T11:58:10;99691.81;;;34.16;33.35
69460;BME280;57182;55.712;37.612;2022-07-06T12:00:41;99676.81;;;34.02;33.25
69460;BME280;57182;55.712;37.612;2022-07-06T12:03:15;99700.19;;;33.53;34.38
69460;BME280;57182;55.712;37.612;2022-07-06T12:05:56;99688.59;;;32.66;35.13
69460;BME280;57182;55.712;37.612;2022-07-06T12:08:23;99659.81;;;31.89;35.99
69460;BME280;57182;55.712;37.612;2022-07-06T12:10:53;99688.56;;;31.55;36.90
69460;BME280;57182;55.712;37.612;2022-07-06T12:13:23;99679.03;;;31.35;37.19
69460;BME280;57182;55.712;37.612;2022-07-06T12:15:52;99681.50;;;31.36;37.15
69460;BME280;57182;55.712;37.612;2022-07-06T12:18:19;99677.94;;;31.36;37.81
69460;BME280;57182;55.712;37.612;2022-07-06T12:20:47;99667.81;;;31.13;37.80
69460;BME280;57182;55.712;37.612;2022-07-06T12:23:15;99676.25;;;31.23;38.11
69460;BME280;57182;55.712;37.612;2022-07-06T12:25:42;99661.50;;;31.19;38.62
69460;BME280;57182;55.712;37.612;2022-07-06T12:28:23;99661.06;;;31.63;37.84
69460;BME280;57182;55.712;37.612;2022-07-06T12:30:50;99641.06;;;31.88;37.02
69460;BME280;57182;55.712;37.612;2022-07-06T12:33:23;99677.31;;;31.93;37.04
69460;BME280;57182;55.712;37.612;2022-07-06T12:35:50;99658.28;;;31.82;37.33
69460;BME280;57182;55.712;37.612;2022-07-06T12:38:31;99655.75;;;31.57;37.92
69460;BME280;57182;55.712;37.612;2022-07-06T12:41:04;99653.09;;;31.92;37.37
69460;BME280;57182;55.712;37.612;2022-07-06T12:43:38;99644.75;;;32.40;37.08
69460;BME280;57182;55.712;37.612;2022-07-06T12:46:26;99644.75;;;33.03;35.74
69460;BME280;57182;55.712;37.612;2022-07-06T12:48:56;99630.13;;;33.32;34.98
69460;BME280;57182;55.712;37.612;2022-07-06T12:51:48;99652.78;;;33.37;34.93
69460;BME280;57182;55.712;37.612;2022-07-06T12:54:17;99655.22;;;33.22;34.62
69460;BME280;57182;55.712;37.612;2022-07-06T12:57:05;99675.50;;;33.15;34.52
69460;BME280;57182;55.712;37.612;2022-07-06T12:59:39;99656.91;;;32.72;37.12
69460;BME280;57182;55.712;37.612;2022-07-06T13:02:09;99671.19;;;31.98;38.30
69460;BME280;57182;55.712;37.612;2022-07-06T13:04:37;99669.94;;;31.41;39.68
69460;BME280;57182;55.712;37.612;2022-07-06T13:07:06;99670.03;;;30.86;40.58
69460;BME280;57182;55.712;37.612;2022-07-06T13:09:34;99671.41;;;30.34;42.00
69460;BME280;57182;55.712;37.612;2022-07-06T13:12:02;99676.28;;;30.01;42.23
69460;BME280;57182;55.712;37.612;2022-07-06T13:14:29;99660.94;;;29.64;43.10
69460;BME280;57182;55.712;37.612;2022-07-06T13:16:59;99643.81;;;29.45;43.52
69460;BME280;57182;55.712;37.612;2022-07-06T13:19:27;99651.22;;;29.56;43.33
69460;BME280;57182;55.712;37.612;2022-07-06T13:21:54;99659.75;;;29.84;43.01
69460;BME280;57182;55.712;37.612;2022-07-06T13:24:22;99639.47;;;30.43;41.97
69460;BME280;57182;55.712;37.612;2022-07-06T13:26:51;99646.91;;;31.02;40.87
69460;BME280;57182;55.712;37.612;2022-07-06T13:29:18;99669.22;;;31.04;41.25
69460;BME280;57182;55.712;37.612;2022-07-06T13:31:46;99659.19;;;31.34;40.36
69460;BME280;57182;55.712;37.612;2022-07-06T13:37:58;99660.50;;;32.14;38.24
69460;BME280;57182;55.712;37.612;2022-07-06T13:40:34;99646.69;;;31.74;38.95
69460;BME280;57182;55.712;37.612;2022-07-06T13:43:14;99639.75;;;31.79;38.72
69460;BME280;57182;55.712;37.612;2022-07-06T13:45:41;99629.84;;;31.96;38.65
69460;BME280;57182;55.712;37.612;2022-07-06T13:48:14;99648.88;;;31.96;38.97
69460;BME280;57182;55.712;37.612;2022-07-06T13:50:51;99625.19;;;31.61;38.84
69460;BME280;57182;55.712;37.612;2022-07-06T13:53:25;99622.38;;;31.27;39.54
69460;BME280;57182;55.712;37.612;2022-07-06T13:55:53;99639.38;;;31.04;40.36
69460;BME280;57182;55.712;37.612;2022-07-06T13:58:21;99622.38;;;30.61;40.75
69460;BME280;57182;55.712;37.612;2022-07-06T14:00:49;99618.75;;;30.48;41.44
69460;BME280;57182;55.712;37.612;2022-07-06T14:03:24;99628.84;;;30.41;41.64
69460;BME280;57182;55.712;37.612;2022-07-06T14:05:58;99628.28;;;30.33;41.89
69460;BME280;57182;55.712;37.612;2022-07-06T14:08:32;99663.03;;;30.42;42.61
69460;BME280;57182;55.712;37.612;2022-07-06T14:11:02;99650.75;;;30.15;42.87
69460;BME280;57182;55.712;37.612;2022-07-06T14:13:30;99611.50;;;29.75;43.34
69460;BME280;57182;55.712;37.612;2022-07-06T14:16:01;99608.69;;;29.63;43.77
69460;BME280;57182;55.712;37.612;2022-07-06T14:18:29;99639.47;;;29.69;43.63